createdAt,value
2022-08-05T00:01:35.532Z,101304.69
2022-08-05T00:04:05.187Z,101294.09
2022-08-05T00:06:36.405Z,101283.84
2022-08-05T00:09:13.046Z,101275.88
2022-08-05T00:11:48.325Z,101281.06
2022-08-05T00:14:17.719Z,101291.06
2022-08-05T00:16:52.984Z,101297.34
2022-08-05T00:19:23.278Z,101305.53
2022-08-05T00:21:54.064Z,101317.00
2022-08-05T00:24:24.554Z,101302.78
2022-08-05T00:26:53.475Z,101299.50
2022-08-05T00:29:22.587Z,101297.09
2022-08-05T00:32:10.278Z,101297.59
2022-08-05T00:34:53.186Z,101314.81
2022-08-05T00:37:24.700Z,101303.38
2022-08-05T00:39:58.114Z,101304.44
2022-08-05T00:42:39.821Z,101295.78
2022-08-05T00:45:11.611Z,101299.16
2022-08-05T00:47:56.528Z,101297.09
2022-08-05T00:50:25.332Z,101303.97
2022-08-05T00:52:55.049Z,101292.41
2022-08-05T00:55:34.047Z,101302.78
2022-08-05T00:58:14.327Z,101305.66
2022-08-05T01:00:42.221Z,101303.13
2022-08-05T01:03:22.391Z,101301.56
2022-08-05T01:05:51.814Z,101299.84
2022-08-05T01:08:40.760Z,101293.72
2022-08-05T01:11:37.000Z,101290.22
2022-08-05T01:14:32.953Z,101300.97
2022-08-05T01:17:25.838Z,101303.75
2022-08-05T01:20:27.613Z,101314.59
2022-08-05T01:23:45.913Z,101330.03
2022-08-05T01:27:19.505Z,101330.03
2022-08-05T01:30:03.357Z,101340.00
2022-08-05T01:32:39.012Z,101353.16
2022-08-05T01:35:51.240Z,101357.03
2022-08-05T01:38:07.027Z,101348.00
2022-08-05T01:40:35.311Z,101346.16
2022-08-05T01:43:04.189Z,101350.88
2022-08-05T01:45:34.706Z,101356.44
2022-08-05T01:48:04.228Z,101341.34
2022-08-05T01:50:41.599Z,101352.66
2022-08-05T01:53:58.126Z,101367.03
2022-08-05T01:58:10.294Z,101361.84
2022-08-05T01:59:08.744Z,101373.53
2022-08-05T02:01:39.816Z,101376.19
2022-08-05T02:04:11.039Z,101383.06
2022-08-05T02:06:39.571Z,101364.16
2022-08-05T02:09:08.283Z,101359.66
2022-08-05T02:11:55.548Z,101342.91
2022-08-05T02:14:49.567Z,101339.06
2022-08-05T02:18:31.343Z,101325.31
2022-08-05T02:20:58.755Z,101308.06
2022-08-05T02:23:35.730Z,101316.25
2022-08-05T02:26:06.161Z,101328.81
2022-08-05T02:28:45.729Z,101340.59
2022-08-05T02:31:26.678Z,101334.69
2022-08-05T02:34:04.857Z,101324.44
2022-08-05T02:36:36.520Z,101331.63
2022-08-05T02:39:10.240Z,101341.41
2022-08-05T02:41:57.615Z,101343.97
2022-08-05T02:44:29.224Z,101336.00
2022-08-05T02:47:00.959Z,101339.59
2022-08-05T02:49:37.707Z,101352.84
2022-08-05T02:52:30.671Z,101363.34
2022-08-05T02:55:05.584Z,101369.53
2022-08-05T02:58:10.102Z,101369.53
2022-08-05T03:00:29.972Z,101364.41
2022-08-05T03:02:58.734Z,101355.41
2022-08-05T03:06:56.816Z,101344.78
2022-08-05T03:08:16.596Z,101347.44
2022-08-05T03:11:54.329Z,101336.00
2022-08-05T03:13:51.758Z,101305.13
2022-08-05T03:16:22.486Z,101296.25
2022-08-05T03:18:50.116Z,101301.63
2022-08-05T03:21:17.490Z,101310.53
2022-08-05T03:23:45.634Z,101307.06
2022-08-05T03:26:30.928Z,101320.31
2022-08-05T03:29:00.757Z,101332.84
2022-08-05T03:31:55.791Z,101348.75
2022-08-05T03:34:17.969Z,101342.59
2022-08-05T03:36:45.890Z,101339.09
2022-08-05T03:39:26.670Z,101344.41
2022-08-05T03:41:56.252Z,101344.63
2022-08-05T03:44:25.413Z,101339.34
2022-08-05T03:46:56.679Z,101344.63
2022-08-05T03:49:24.062Z,101357.16
2022-08-05T03:52:37.259Z,101358.97
2022-08-05T03:56:04.251Z,101351.88
2022-08-05T03:58:00.777Z,101352.34
2022-08-05T04:00:32.196Z,101344.41
2022-08-05T04:03:04.659Z,101351.63
2022-08-05T04:05:36.302Z,101340.03
2022-08-05T04:08:29.750Z,101326.69
2022-08-05T04:11:03.221Z,101321.63
2022-08-05T04:13:50.137Z,101320.19
2022-08-05T04:16:24.287Z,101332.56
2022-08-05T04:18:54.752Z,101325.47
2022-08-05T04:22:08.748Z,101328.25
2022-08-05T04:24:18.663Z,101333.91
2022-08-05T04:26:47.290Z,101339.44
2022-08-05T04:29:14.526Z,101343.97
2022-08-05T04:31:43.026Z,101354.59
2022-08-05T04:34:19.010Z,101351.22
2022-08-05T04:36:58.378Z,101356.28
2022-08-05T04:39:25.717Z,101355.44
2022-08-05T04:41:55.559Z,101362.31
2022-08-05T04:44:30.217Z,101359.66
2022-08-05T04:46:59.709Z,101366.78
2022-08-05T04:49:38.965Z,101371.22
2022-08-05T04:52:16.520Z,101366.78
2022-08-05T04:54:44.009Z,101365.81
2022-08-05T04:57:11.237Z,101355.34
2022-08-05T04:59:40.843Z,101359.88
2022-08-05T05:02:36.741Z,101366.88
2022-08-05T05:05:02.264Z,101366.66
2022-08-05T05:07:35.256Z,101370.13
2022-08-05T05:10:06.301Z,101368.94
2022-08-05T05:12:34.009Z,101367.03
2022-08-05T05:15:06.073Z,101361.72
2022-08-05T05:17:57.128Z,101356.31
2022-08-05T05:20:28.753Z,101363.06
2022-08-05T05:23:08.473Z,101361.03
2022-08-05T05:25:47.854Z,101358.13
2022-08-05T05:28:15.142Z,101359.63
2022-08-05T05:30:42.977Z,101354.09
2022-08-05T05:33:17.696Z,101367.34
2022-08-05T05:35:50.707Z,101375.31
2022-08-05T05:38:26.852Z,101382.44
2022-08-05T05:40:57.053Z,101379.88
2022-08-05T05:43:56.477Z,101382.78
2022-08-05T05:46:17.768Z,101385.75
2022-08-05T05:48:47.992Z,101386.69
2022-08-05T05:51:24.726Z,101386.09
2022-08-05T05:53:58.832Z,101385.34
2022-08-05T05:56:34.420Z,101391.75
2022-08-05T05:59:07.776Z,101393.53
2022-08-05T06:01:57.809Z,101398.72
2022-08-05T06:04:25.676Z,101401.88
2022-08-05T06:06:52.885Z,101401.66
2022-08-05T06:09:35.356Z,101398.13
2022-08-05T06:12:09.716Z,101400.66
2022-08-05T06:14:40.184Z,101404.53
2022-08-05T06:17:22.109Z,101409.84
2022-08-05T06:19:57.162Z,101406.09
2022-08-05T06:22:34.394Z,101419.88
2022-08-05T06:25:24.597Z,101416.03
2022-08-05T06:28:11.467Z,101412.31
2022-08-05T06:30:39.343Z,101416.44
2022-08-05T06:33:10.028Z,101414.59
2022-08-05T06:36:07.469Z,101428.69
2022-08-05T06:38:36.721Z,101417.16
2022-08-05T06:41:08.166Z,101415.97
2022-08-05T06:43:59.115Z,101420.91
2022-08-05T06:46:30.418Z,101415.38
2022-08-05T06:49:00.794Z,101423.81
2022-08-05T06:51:31.054Z,101430.56
2022-08-05T06:54:01.977Z,101437.31
2022-08-05T06:56:34.680Z,101442.25
2022-08-05T06:59:09.562Z,101438.06
2022-08-05T07:01:40.800Z,101440.59
2022-08-05T07:04:09.609Z,101451.44
2022-08-05T07:06:37.210Z,101450.34
2022-08-05T07:09:05.382Z,101453.63
2022-08-05T07:11:37.278Z,101449.41
2022-08-05T07:14:29.513Z,101449.63
2022-08-05T07:18:00.014Z,101452.69
2022-08-05T07:20:32.272Z,101466.06
2022-08-05T07:22:38.999Z,101464.16
2022-08-05T07:25:23.058Z,101471.41
2022-08-05T07:28:02.307Z,101478.88
2022-08-05T07:30:38.884Z,101479.84
2022-08-05T07:33:16.007Z,101480.91
2022-08-05T07:36:02.938Z,101482.75
2022-08-05T07:38:42.946Z,101480.56
2022-08-05T07:42:07.843Z,101481.38
2022-08-05T07:44:12.143Z,101481.47
2022-08-05T07:46:41.929Z,101481.44
2022-08-05T07:49:15.589Z,101487.81
2022-08-05T07:51:53.355Z,101480.69
2022-08-05T07:54:31.207Z,101489.13
2022-08-05T07:57:17.695Z,101485.84
2022-08-05T07:59:51.831Z,101490.28
2022-08-05T08:02:26.691Z,101484.63
2022-08-05T08:04:59.416Z,101492.97
2022-08-05T08:07:28.503Z,101493.09
2022-08-05T08:09:56.107Z,101494.91
2022-08-05T08:12:35.674Z,101494.34
2022-08-05T08:15:15.842Z,101498.28
2022-08-05T08:17:50.780Z,101505.66
2022-08-05T08:21:00.144Z,101504.13
2022-08-05T08:24:00.969Z,101515.19
2022-08-05T08:26:02.783Z,101519.41
2022-08-05T08:28:35.672Z,101509.31
2022-08-05T08:31:06.915Z,101521.28
2022-08-05T08:33:37.564Z,101523.28
2022-08-05T08:38:56.814Z,101532.50
2022-08-05T08:41:51.398Z,101526.97
2022-08-05T08:45:17.948Z,101533.84
2022-08-05T08:47:47.750Z,101536.56
2022-08-05T08:50:22.916Z,101536.16
2022-08-05T08:53:03.433Z,101548.81
2022-08-05T08:56:02.632Z,101559.94
2022-08-05T08:58:37.659Z,101557.56
2022-08-05T09:01:15.838Z,101562.44
2022-08-05T09:03:54.421Z,101561.91
2022-08-05T09:06:30.629Z,101547.63
2022-08-05T09:09:03.145Z,101554.06
2022-08-05T09:11:53.411Z,101565.56
2022-08-05T09:14:56.989Z,101573.00
2022-08-05T09:17:40.289Z,101567.97
2022-08-05T09:20:05.709Z,101574.38
2022-08-05T09:23:19.028Z,101578.75
2022-08-05T09:26:06.220Z,101581.03
2022-08-05T09:28:37.426Z,101589.47
2022-08-05T09:31:43.534Z,101595.94
2022-08-05T09:34:06.516Z,101594.47
2022-08-05T09:36:56.257Z,101596.00
2022-08-05T09:39:44.761Z,101605.69
2022-08-05T09:42:23.182Z,101600.28
2022-08-05T09:45:03.126Z,101596.25
2022-08-05T09:47:49.018Z,101602.47
2022-08-05T09:50:43.730Z,101605.94
2022-08-05T09:53:22.994Z,101610.47
2022-08-05T09:56:03.940Z,101609.13
2022-08-05T09:58:32.470Z,101608.66
2022-08-05T10:01:15.329Z,101613.91
2022-08-05T10:04:18.466Z,101602.00
2022-08-05T10:06:59.501Z,101611.31
2022-08-05T10:09:29.968Z,101602.66
2022-08-05T10:12:18.466Z,101614.97
2022-08-05T10:15:38.645Z,101613.75
2022-08-05T10:18:22.756Z,101605.16
2022-08-05T10:21:11.771Z,101609.44
2022-08-05T10:24:00.032Z,101612.25
2022-08-05T10:26:32.667Z,101619.97
2022-08-05T10:29:01.273Z,101616.84
2022-08-05T10:32:54.653Z,101630.88
2022-08-05T10:34:16.976Z,101629.69
2022-08-05T10:36:46.133Z,101618.81
2022-08-05T10:39:59.088Z,101628.03
2022-08-05T10:42:33.568Z,101629.22
2022-08-05T10:45:21.284Z,101628.56
2022-08-05T10:48:29.174Z,101638.31
2022-08-05T10:51:21.705Z,101644.47
2022-08-05T10:54:05.701Z,101647.75
2022-08-05T10:56:55.885Z,101638.28
2022-08-05T11:00:04.362Z,101650.72
2022-08-05T11:02:37.516Z,101649.44
2022-08-05T11:05:10.717Z,101652.47
2022-08-05T11:08:34.088Z,101650.16
2022-08-05T11:11:52.382Z,101643.97
2022-08-05T11:17:58.950Z,101660.34
2022-08-05T11:20:51.024Z,101667.09
2022-08-05T11:24:04.528Z,101672.25
2022-08-05T11:26:33.849Z,101674.28
2022-08-05T11:29:13.801Z,101669.09
2022-08-05T11:31:57.004Z,101676.88
2022-08-05T11:34:57.260Z,101682.25
2022-08-05T11:38:30.693Z,101684.47
2022-08-05T11:41:34.702Z,101678.00
2022-08-05T11:44:40.182Z,101689.84
2022-08-05T11:47:13.986Z,101690.34
2022-08-05T11:49:49.847Z,101685.69
2022-08-05T11:52:30.974Z,101695.53
2022-08-05T11:55:07.555Z,101684.47
2022-08-05T11:58:07.871Z,101698.84
2022-08-05T12:00:32.115Z,101694.22
2022-08-05T12:03:28.710Z,101714.44
2022-08-05T12:06:06.193Z,101722.00
2022-08-05T12:08:55.792Z,101726.72
2022-08-05T12:11:40.143Z,101726.78
2022-08-05T12:14:10.219Z,101739.03
2022-08-05T12:16:45.160Z,101743.09
2022-08-05T12:20:26.027Z,101732.69
2022-08-05T12:22:01.680Z,101742.94
2022-08-05T12:24:30.013Z,101746.16
2022-08-05T12:26:57.760Z,101754.16
2022-08-05T12:29:29.111Z,101758.94
2022-08-05T12:32:07.407Z,101760.47
2022-08-05T12:34:38.454Z,101767.19
2022-08-05T12:37:16.263Z,101763.44
2022-08-05T12:39:51.150Z,101759.63
2022-08-05T12:42:21.464Z,101770.09
2022-08-05T12:44:52.668Z,101777.25
2022-08-05T12:47:31.086Z,101778.25
2022-08-05T12:50:04.071Z,101780.66
2022-08-05T12:52:39.646Z,101781.72
2022-08-05T12:55:25.791Z,101786.16
2022-08-05T12:58:49.756Z,101792.56
2022-08-05T13:02:01.665Z,101804.47
2022-08-05T13:03:42.351Z,101800.16
2022-08-05T13:06:17.193Z,101804.91
2022-08-05T13:08:52.212Z,101803.72
2022-08-05T13:12:02.150Z,101804.03
2022-08-05T13:14:35.985Z,101800.22
2022-08-05T13:17:10.890Z,101795.56
2022-08-05T13:19:40.363Z,101810.38
2022-08-05T13:22:27.719Z,101803.72
2022-08-05T13:25:00.715Z,101807.13
2022-08-05T13:27:39.813Z,101805.44
2022-08-05T13:30:35.314Z,101808.63
2022-08-05T13:33:03.791Z,101815.25
2022-08-05T13:35:42.766Z,101815.63
2022-08-05T13:38:28.328Z,101807.88
2022-08-05T13:41:00.440Z,101815.44
2022-08-05T13:43:45.549Z,101815.50
2022-08-05T13:46:30.836Z,101814.19
2022-08-05T13:49:09.879Z,101826.09
2022-08-05T13:51:40.921Z,101827.28
2022-08-05T13:54:15.184Z,101822.50
2022-08-05T13:56:50.526Z,101827.09
2022-08-05T13:59:23.850Z,101826.94
2022-08-05T14:01:59.068Z,101826.09
2022-08-05T14:05:00.673Z,101827.94
2022-08-05T14:07:59.994Z,101845.47
2022-08-05T14:10:30.656Z,101851.56
2022-08-05T14:12:59.370Z,101840.25
2022-08-05T14:16:08.114Z,101848.28
2022-08-05T14:18:19.533Z,101850.81
2022-08-05T14:20:55.105Z,101854.44
2022-08-05T14:23:25.592Z,101860.72
2022-08-05T14:25:58.763Z,101858.84
2022-08-05T14:28:30.908Z,101874.88
2022-08-05T14:31:00.902Z,101881.22
2022-08-05T14:33:56.676Z,101867.13
2022-08-05T14:36:21.301Z,101871.00
2022-08-05T14:38:51.539Z,101865.47
2022-08-05T14:41:19.394Z,101880.50
2022-08-05T14:43:59.127Z,101878.09
2022-08-05T14:46:31.378Z,101877.66
2022-08-05T14:49:06.586Z,101879.09
2022-08-05T14:51:42.541Z,101881.59
2022-08-05T14:54:28.854Z,101883.75
2022-08-05T14:56:59.235Z,101881.81
2022-08-05T14:59:29.491Z,101886.94
2022-08-05T15:02:14.819Z,101882.44
2022-08-05T15:04:43.814Z,101876.22
2022-08-05T15:08:06.256Z,101882.25
2022-08-05T15:10:01.274Z,101873.84
2022-08-05T15:12:40.937Z,101877.19
2022-08-05T15:15:16.375Z,101874.47
2022-08-05T15:17:46.323Z,101885.44
2022-08-05T15:20:24.617Z,101888.53
2022-08-05T15:22:55.109Z,101886.75
2022-08-05T15:25:52.812Z,101895.63
2022-08-05T15:28:15.652Z,101904.09
2022-08-05T15:30:46.457Z,101900.50
2022-08-05T15:34:04.030Z,101893.47
2022-08-05T15:36:05.565Z,101893.22
2022-08-05T15:38:41.865Z,101902.66
2022-08-05T15:41:22.322Z,101890.59
2022-08-05T15:43:54.889Z,101889.47
2022-08-05T15:46:24.806Z,101886.84
2022-08-05T15:48:58.961Z,101892.66
2022-08-05T15:52:10.343Z,101897.84
2022-08-05T15:54:17.788Z,101902.63
2022-08-05T15:56:45.018Z,101904.94
2022-08-05T15:59:20.214Z,101902.22
2022-08-05T16:01:52.956Z,101897.75
2022-08-05T16:04:25.348Z,101905.44
2022-08-05T16:06:55.533Z,101902.13
2022-08-05T16:09:24.978Z,101905.91
2022-08-05T16:11:54.334Z,101906.72
2022-08-05T16:14:23.215Z,101909.06
2022-08-05T16:16:50.963Z,101910.03
2022-08-05T16:19:25.538Z,101920.41
2022-08-05T16:22:07.611Z,101929.44
2022-08-05T16:24:41.824Z,101923.75
2022-08-05T16:27:19.600Z,101922.38
2022-08-05T16:30:08.428Z,101920.13
2022-08-05T16:32:50.950Z,101932.81
2022-08-05T16:35:18.208Z,101932.81
2022-08-05T16:38:02.322Z,101937.72
2022-08-05T16:40:32.934Z,101947.75
2022-08-05T16:43:00.328Z,101950.00
2022-08-05T16:46:04.521Z,101947.88
2022-08-05T16:48:25.606Z,101957.69
2022-08-05T16:51:00.337Z,101960.63
2022-08-05T16:53:31.857Z,101956.22
2022-08-05T16:56:00.158Z,101965.44
2022-08-05T16:58:27.349Z,101964.91
2022-08-05T17:00:55.289Z,101971.31
2022-08-05T17:03:22.770Z,101975.91
2022-08-05T17:05:54.014Z,101970.25
2022-08-05T17:08:36.409Z,101991.69
2022-08-05T17:11:16.895Z,101984.69
2022-08-05T17:13:46.209Z,101992.16
2022-08-05T17:16:33.018Z,101989.50
2022-08-05T17:19:01.682Z,101992.00
2022-08-05T17:21:35.311Z,101992.50
2022-08-05T17:24:28.055Z,101993.34
2022-08-05T17:26:57.929Z,102003.53
2022-08-05T17:29:33.428Z,102003.03
2022-08-05T17:32:11.381Z,102001.16
2022-08-05T17:34:44.882Z,102003.56
2022-08-05T17:37:40.721Z,102012.16
2022-08-05T17:40:14.238Z,102020.63
2022-08-05T17:42:51.169Z,102030.19
2022-08-05T17:45:29.483Z,102025.56
2022-08-05T17:48:07.820Z,102033.66
2022-08-05T17:50:35.292Z,102036.34
2022-08-05T17:53:08.333Z,102035.94
2022-08-05T17:55:38.803Z,102048.75
2022-08-05T17:58:12.385Z,102052.84
2022-08-05T18:00:47.699Z,102052.25
2022-08-05T18:03:48.337Z,102053.19
2022-08-05T18:06:12.045Z,102051.13
2022-08-05T18:08:52.358Z,102062.34
2022-08-05T18:11:24.456Z,102066.91
2022-08-05T18:14:04.365Z,102071.72
2022-08-05T18:16:51.116Z,102076.19
2022-08-05T18:19:23.045Z,102076.66
2022-08-05T18:22:09.568Z,102083.03
2022-08-05T18:24:40.052Z,102084.34
2022-08-05T18:27:12.301Z,102090.84
2022-08-05T18:29:41.464Z,102088.59
2022-08-05T18:32:12.946Z,102094.50
2022-08-05T18:34:42.930Z,102088.16
2022-08-05T18:37:12.264Z,102099.44
2022-08-05T18:40:29.743Z,102101.69
2022-08-05T18:42:27.479Z,102103.09
2022-08-05T18:44:56.606Z,102106.41
2022-08-05T18:47:26.365Z,102107.78
2022-08-05T18:50:15.455Z,102110.34
2022-08-05T18:52:51.093Z,102112.03
2022-08-05T18:55:21.644Z,102122.44
2022-08-05T18:57:53.271Z,102114.88
2022-08-05T19:00:27.212Z,102120.72
2022-08-05T19:03:03.287Z,102117.91
2022-08-05T19:06:11.758Z,102126.28
2022-08-05T19:08:18.808Z,102124.06
2022-08-05T19:10:46.325Z,102127.25
2022-08-05T19:13:15.890Z,102132.00
2022-08-05T19:15:59.271Z,102143.09
2022-08-05T19:18:28.872Z,102149.88
2022-08-05T19:20:56.513Z,102151.97
2022-08-05T19:24:07.773Z,102158.53
2022-08-05T19:26:12.072Z,102155.63
2022-08-05T19:28:44.065Z,102161.31
2022-08-05T19:31:13.141Z,102165.28
2022-08-05T19:33:48.261Z,102165.00
2022-08-05T19:36:29.304Z,102168.31
2022-08-05T19:39:01.571Z,102170.72
2022-08-05T19:41:58.323Z,102170.16
2022-08-05T19:44:19.584Z,102172.31
2022-08-05T19:46:47.342Z,102169.94
2022-08-05T19:49:18.121Z,102180.91
2022-08-05T19:52:04.733Z,102190.94
2022-08-05T19:54:35.698Z,102191.22
2022-08-05T19:57:09.500Z,102196.63
2022-08-05T20:00:00.198Z,102187.94
2022-08-05T20:02:31.346Z,102190.75
2022-08-05T20:04:59.974Z,102196.25
2022-08-05T20:07:45.816Z,102197.34
2022-08-05T20:10:19.468Z,102201.34
2022-08-05T20:12:49.742Z,102204.34
2022-08-05T20:15:23.364Z,102204.72
2022-08-05T20:18:10.973Z,102207.88
2022-08-05T20:20:57.164Z,102212.63
2022-08-05T20:23:39.960Z,102216.59
2022-08-05T20:26:15.288Z,102222.34
2022-08-05T20:28:55.619Z,102220.88
2022-08-05T20:31:42.123Z,102219.25
2022-08-05T20:34:15.546Z,102225.59
2022-08-05T20:36:43.216Z,102235.56
2022-08-05T20:39:16.349Z,102234.03
2022-08-05T20:41:45.296Z,102236.88
2022-08-05T20:44:29.910Z,102235.31
2022-08-05T20:47:04.883Z,102239.22
2022-08-05T20:49:39.276Z,102232.44
2022-08-05T20:52:08.900Z,102238.81
2022-08-05T20:54:42.847Z,102244.28
2022-08-05T20:57:42.715Z,102245.38
2022-08-05T21:00:41.204Z,102242.97
2022-08-05T21:03:06.866Z,102247.75
2022-08-05T21:05:53.390Z,102248.00
2022-08-05T21:08:26.714Z,102251.72
2022-08-05T21:11:12.566Z,102249.34
2022-08-05T21:13:47.909Z,102259.22
2022-08-05T21:16:30.317Z,102263.97
2022-08-05T21:19:01.933Z,102259.09
2022-08-05T21:21:44.170Z,102267.25
2022-08-05T21:24:19.694Z,102269.22
2022-08-05T21:26:57.844Z,102267.56
2022-08-05T21:29:31.931Z,102267.72
2022-08-05T21:32:04.350Z,102260.03
2022-08-05T21:34:33.055Z,102274.34
2022-08-05T21:37:02.870Z,102276.28
2022-08-05T21:39:30.834Z,102274.72
2022-08-05T21:42:02.457Z,102275.75
2022-08-05T21:44:31.763Z,102275.91
2022-08-05T21:47:00.210Z,102277.84
2022-08-05T21:49:48.501Z,102278.94
2022-08-05T21:52:27.060Z,102282.66
2022-08-05T21:54:57.790Z,102288.09
2022-08-05T21:57:34.924Z,102289.09
2022-08-05T22:00:11.167Z,102298.03
2022-08-05T22:02:42.912Z,102295.47
2022-08-05T22:05:13.086Z,102292.97
2022-08-05T22:07:59.190Z,102303.63
2022-08-05T22:10:28.110Z,102310.72
2022-08-05T22:12:58.899Z,102307.41
2022-08-05T22:16:00.341Z,102307.56
2022-08-05T22:18:25.740Z,102303.28
2022-08-05T22:20:53.734Z,102307.84
2022-08-05T22:24:01.900Z,102313.34
2022-08-05T22:26:50.559Z,102317.84
2022-08-05T22:29:26.482Z,102311.00
2022-08-05T22:31:55.352Z,102312.06
2022-08-05T22:34:29.064Z,102313.09
2022-08-05T22:36:58.723Z,102313.31
2022-08-05T22:39:32.957Z,102312.44
2022-08-05T22:42:11.799Z,102310.81
2022-08-05T22:44:42.746Z,102318.78
2022-08-05T22:47:29.684Z,102320.69
2022-08-05T22:50:21.720Z,102320.91
2022-08-05T22:52:52.692Z,102328.97
2022-08-05T22:55:22.642Z,102330.13
2022-08-05T22:57:53.477Z,102333.75
2022-08-05T23:00:24.485Z,102332.19
2022-08-05T23:02:54.098Z,102331.53
2022-08-05T23:05:22.715Z,102329.91
2022-08-05T23:07:51.633Z,102337.97
2022-08-05T23:10:23.959Z,102340.72
2022-08-05T23:12:55.255Z,102343.50
2022-08-05T23:15:35.389Z,102342.84
2022-08-05T23:18:06.064Z,102351.03
2022-08-05T23:20:39.581Z,102348.53
2022-08-05T23:23:08.198Z,102351.28
2022-08-05T23:25:54.716Z,102347.03
2022-08-05T23:28:29.268Z,102355.00
2022-08-05T23:31:07.100Z,102355.06
2022-08-05T23:34:04.605Z,102351.69
2022-08-05T23:36:38.482Z,102357.91
2022-08-05T23:39:08.009Z,102350.13
2022-08-05T23:41:40.891Z,102357.31
2022-08-05T23:44:08.974Z,102355.69
2022-08-05T23:46:37.512Z,102362.75
2022-08-05T23:49:17.100Z,102355.00
2022-08-05T23:52:08.418Z,102364.75
2022-08-05T23:54:38.615Z,102370.16
2022-08-05T23:57:07.708Z,102370.34
